Time;durP1;ratioP1;P1;durP2;ratioP2;P2;SDS_P1;SDS_P2;PMS_P1;PMS_P2;Temp;Humidity;BMP_temperature;BMP_pressure;BME280_temperature;BME280_humidity;BME280_pressure;Samples;Min_cycle;Max_cycle;Signal;HPM_P1;HPM_P2
2022/12/11 00:00:15;;;;;;;23.50;21.20;;;;;;;-0.50;100.00;96596.58;106327;1312;22158;-83
2022/12/11 00:03:03;;;;;;;22.40;20.30;;;;;;;-0.46;100.00;96597.14;106394;1292;22338;-84
2022/12/11 00:05:37;;;;;;;24.80;22.50;;;;;;;-0.48;100.00;96594.53;106529;1310;22207;-84
2022/12/11 00:08:11;;;;;;;20.50;18.60;;;;;;;-0.51;100.00;96592.94;106267;1312;22706;-84
2022/12/11 00:10:48;;;;;;;19.70;17.70;;;;;;;-0.55;100.00;96594.56;106429;1312;22369;-84
2022/12/11 00:13:16;;;;;;;19.70;17.80;;;;;;;-0.57;100.00;96587.46;106583;1300;22139;-83
2022/12/11 00:15:45;;;;;;;20.80;18.90;;;;;;;-0.58;100.00;96580.33;106518;1307;22113;-84
2022/12/11 00:18:13;;;;;;;20.60;18.60;;;;;;;-0.57;100.00;96577.73;106316;1306;22306;-84
2022/12/11 00:20:45;;;;;;;23.10;21.00;;;;;;;-0.59;100.00;96578.89;106399;1312;22638;-84
2022/12/11 00:23:17;;;;;;;21.10;19.20;;;;;;;-0.61;100.00;96573.54;106435;1312;22256;-82
2022/12/11 00:25:47;;;;;;;20.30;18.40;;;;;;;-0.60;100.00;96568.77;106407;1312;22252;-83
2022/12/11 00:28:18;;;;;;;21.00;19.00;;;;;;;-0.57;100.00;96566.52;106230;1313;22193;-83
2022/12/11 00:30:46;;;;;;;20.40;18.50;;;;;;;-0.52;100.00;96562.34;106217;1312;22920;-83
2022/12/11 00:33:15;;;;;;;22.80;20.60;;;;;;;-0.48;100.00;96561.19;106358;1301;22319;-82
2022/12/11 00:35:53;;;;;;;20.20;18.30;;;;;;;-0.50;100.00;96559.70;106504;1303;22371;-85
2022/12/11 00:38:22;;;;;;;19.20;17.40;;;;;;;-0.50;100.00;96559.17;106481;1312;22255;-84
2022/12/11 00:40:58;;;;;;;20.20;18.40;;;;;;;-0.50;100.00;96551.77;106269;1312;22749;-84
2022/12/11 00:43:25;;;;;;;22.10;20.10;;;;;;;-0.50;100.00;96546.85;106404;1307;22187;-84
2022/12/11 00:45:53;;;;;;;23.60;21.50;;;;;;;-0.50;100.00;96550.45;106432;1304;22281;-84
2022/12/11 00:48:25;;;;;;;21.10;19.10;;;;;;;-0.52;100.00;96544.92;106400;1306;22284;-82
2022/12/11 00:50:53;;;;;;;18.90;17.20;;;;;;;-0.52;100.00;96544.36;106746;1291;22166;-82
2022/12/11 00:53:21;;;;;;;19.60;17.70;;;;;;;-0.53;100.00;96547.63;106486;1311;22167;-85
2022/12/11 00:55:53;;;;;;;18.20;16.50;;;;;;;-0.53;100.00;96541.17;106744;1297;22856;-84
2022/12/11 00:58:24;;;;;;;18.30;16.70;;;;;;;-0.54;100.00;96542.86;106796;1305;22171;-85
2022/12/11 01:00:52;;;;;;;18.20;16.40;;;;;;;-0.57;100.00;96541.65;106657;1306;22193;-84
2022/12/11 01:03:21;;;;;;;16.70;15.10;;;;;;;-0.61;100.00;96541.90;106657;1298;22359;-84
2022/12/11 01:05:56;;;;;;;17.20;15.50;;;;;;;-0.62;100.00;96544.80;106512;1312;22151;-86
2022/12/11 01:08:24;;;;;;;18.10;16.50;;;;;;;-0.63;100.00;96544.84;106485;1312;22231;-88
2022/12/11 01:11:06;;;;;;;18.10;16.50;;;;;;;-0.62;100.00;96544.43;106493;1310;22094;-85
2022/12/11 01:13:38;;;;;;;17.70;16.00;;;;;;;-0.61;100.00;96542.31;106633;1305;22125;-87
2022/12/11 01:16:14;;;;;;;18.80;17.10;;;;;;;-0.62;100.00;96543.88;106498;1312;22166;-86
2022/12/11 01:18:45;;;;;;;18.60;16.90;;;;;;;-0.63;100.00;96546.06;106512;1305;22275;-87
2022/12/11 01:21:13;;;;;;;16.50;14.90;;;;;;;-0.65;100.00;96547.23;106427;1313;22967;-86
2022/12/11 01:23:44;;;;;;;17.00;15.40;;;;;;;-0.61;100.00;96547.65;106506;1298;22186;-85
2022/12/11 01:26:16;;;;;;;15.10;13.70;;;;;;;-0.63;100.00;96547.17;106333;1313;22302;-87
2022/12/11 01:28:47;;;;;;;17.00;15.40;;;;;;;-0.65;100.00;96547.86;106701;1305;22175;-87
2022/12/11 01:31:17;;;;;;;16.30;14.80;;;;;;;-0.70;100.00;96545.26;106569;1312;22293;-86
2022/12/11 01:33:47;;;;;;;15.40;14.00;;;;;;;-0.69;100.00;96538.97;106513;1312;22196;-85
2022/12/11 01:36:20;;;;;;;15.50;14.10;;;;;;;-0.67;100.00;96534.00;106417;1305;22312;-86
2022/12/11 01:38:48;;;;;;;14.90;13.50;;;;;;;-0.66;100.00;96534.26;106269;1312;22268;-85
2022/12/11 01:41:19;;;;;;;14.40;13.00;;;;;;;-0.71;100.00;96526.20;106465;1312;22171;-86
2022/12/11 01:44:07;;;;;;;14.60;13.30;;;;;;;-0.72;100.00;96519.43;106612;1305;22187;-86
2022/12/11 01:46:37;;;;;;;14.00;12.60;;;;;;;-0.69;100.00;96515.20;106219;1312;22239;-86
2022/12/11 01:49:11;;;;;;;14.80;13.40;;;;;;;-0.70;100.00;96519.28;106273;1307;22962;-87
2022/12/11 01:51:55;;;;;;;14.60;13.30;;;;;;;-0.72;100.00;96518.73;106395;1312;22192;-87
2022/12/11 01:54:30;;;;;;;15.40;13.90;;;;;;;-0.75;100.00;96516.73;106599;1294;22102;-85
2022/12/11 01:57:05;;;;;;;14.00;12.70;;;;;;;-0.75;100.00;96520.89;106249;1313;22110;-87
2022/12/11 01:59:37;;;;;;;14.70;13.40;;;;;;;-0.75;100.00;96517.88;106232;1313;22904;-87
2022/12/11 02:02:17;;;;;;;13.90;12.60;;;;;;;-0.75;100.00;96515.14;106121;1313;22146;-87
2022/12/11 02:04:47;;;;;;;15.30;13.90;;;;;;;-0.76;100.00;96514.29;106415;1312;22216;-86
2022/12/11 02:07:15;;;;;;;13.60;12.40;;;;;;;-0.80;100.00;96519.50;106242;1312;22388;-84
2022/12/11 02:09:46;;;;;;;14.10;12.70;;;;;;;-0.84;100.00;96515.27;106474;1290;22168;-85
2022/12/11 02:12:35;;;;;;;13.70;12.50;;;;;;;-0.84;100.00;96515.73;106395;1308;22826;-85
2022/12/11 02:15:18;;;;;;;15.10;13.80;;;;;;;-0.81;100.00;96515.53;106456;1312;22215;-87
2022/12/11 02:18:34;;;;;;;15.50;14.10;;;;;;;-0.83;100.00;96517.96;106480;1312;22285;-86
2022/12/11 02:21:19;;;;;;;15.80;14.40;;;;;;;-0.85;100.00;96519.80;106426;1312;22187;-86
2022/12/11 02:24:16;;;;;;;15.00;13.70;;;;;;;-0.84;100.00;96522.34;106499;1306;22155;-86
2022/12/11 02:26:59;;;;;;;14.20;12.90;;;;;;;-0.87;100.00;96522.49;106195;1312;23047;-86
2022/12/11 02:29:38;;;;;;;13.20;12.00;;;;;;;-0.84;100.00;96520.76;106471;1312;22880;-87
2022/12/11 02:32:13;;;;;;;13.80;12.60;;;;;;;-0.85;100.00;96518.96;106531;1286;22179;-86
2022/12/11 02:34:49;;;;;;;12.90;11.70;;;;;;;-0.89;100.00;96514.13;106174;1313;22312;-86
2022/12/11 02:37:23;;;;;;;14.00;12.70;;;;;;;-0.89;100.00;96515.46;106612;1306;22988;-84
2022/12/11 02:39:55;;;;;;;14.20;12.80;;;;;;;-0.89;100.00;96516.02;106222;1312;22362;-86
2022/12/11 02:42:30;;;;;;;15.40;14.10;;;;;;;-0.89;100.00;96507.35;106049;1312;22182;-86
2022/12/11 02:45:03;;;;;;;14.70;13.30;;;;;;;-0.94;100.00;96505.92;106250;1313;22898;-86
2022/12/11 02:47:32;;;;;;;13.70;12.40;;;;;;;-1.00;100.00;96501.35;106160;1315;22246;-86
2022/12/11 02:50:09;;;;;;;14.40;13.10;;;;;;;-1.02;100.00;96498.80;106363;1313;23096;-87
2022/12/11 02:52:40;;;;;;;14.00;12.70;;;;;;;-1.04;100.00;96504.94;106104;1312;22283;-86
2022/12/11 02:55:18;;;;;;;14.10;12.80;;;;;;;-1.05;100.00;96498.95;106238;1313;22295;-87
2022/12/11 02:58:16;;;;;;;13.80;12.50;;;;;;;-1.03;100.00;96498.69;106545;1305;22163;-86
2022/12/11 03:00:50;;;;;;;15.10;13.80;;;;;;;-1.03;100.00;96496.58;106230;1312;22235;-86
2022/12/11 03:03:17;;;;;;;16.20;14.80;;;;;;;-1.01;100.00;96494.04;106229;1309;22934;-87
2022/12/11 03:05:47;;;;;;;14.00;12.80;;;;;;;-1.01;100.00;96491.30;106423;1311;22240;-86
2022/12/11 03:08:17;;;;;;;15.10;13.70;;;;;;;-1.00;100.00;96496.05;106093;1313;22087;-85
2022/12/11 03:10:45;;;;;;;14.20;12.90;;;;;;;-1.00;100.00;96488.81;106443;1311;22093;-88
2022/12/11 03:13:18;;;;;;;14.20;13.00;;;;;;;-1.02;100.00;96481.83;106202;1312;22930;-85
2022/12/11 03:15:55;;;;;;;14.60;13.20;;;;;;;-1.04;100.00;96485.20;106406;1312;22263;-85
2022/12/11 03:18:26;;;;;;;13.70;12.40;;;;;;;-1.04;100.00;96487.27;106453;1312;22881;-86
2022/12/11 03:21:04;;;;;;;13.70;12.40;;;;;;;-1.09;100.00;96492.38;106458;1311;22199;-84
2022/12/11 03:23:41;;;;;;;15.10;13.70;;;;;;;-1.08;100.00;96495.81;106636;1305;22104;-84
2022/12/11 03:26:12;;;;;;;14.10;12.90;;;;;;;-1.08;100.00;96494.60;106660;1290;22126;-83
2022/12/11 03:28:48;;;;;;;15.00;13.60;;;;;;;-1.12;100.00;96491.05;106503;1312;22204;-84
2022/12/11 03:31:45;;;;;;;14.90;13.40;;;;;;;-1.15;100.00;96490.12;106157;1310;22182;-83
2022/12/11 03:34:29;;;;;;;15.70;14.30;;;;;;;-1.20;100.00;96483.98;106561;1305;22255;-84
2022/12/11 03:36:59;;;;;;;15.50;14.00;;;;;;;-1.18;100.00;96483.92;106526;1312;22994;-84
2022/12/11 03:39:35;;;;;;;15.10;13.70;;;;;;;-1.23;100.00;96484.38;106478;1312;22217;-85
2022/12/11 03:42:07;;;;;;;15.40;13.90;;;;;;;-1.22;100.00;96474.83;106748;1291;22865;-87
2022/12/11 03:44:35;;;;;;;14.50;13.20;;;;;;;-1.25;100.00;96478.83;106372;1313;24477;-90
2022/12/11 03:47:07;;;;;;;15.00;13.60;;;;;;;-1.25;100.00;96472.39;106720;1312;22164;-91
2022/12/11 03:49:40;;;;;;;16.70;15.10;;;;;;;-1.24;100.00;96472.70;106581;1309;22105;-92
2022/12/11 03:52:11;;;;;;;15.80;14.30;;;;;;;-1.24;100.00;96469.22;106536;1308;22059;-92
2022/12/11 03:54:42;;;;;;;14.40;13.10;;;;;;;-1.26;100.00;96468.47;106689;1298;22723;-91
2022/12/11 03:57:15;;;;;;;14.60;13.20;;;;;;;-1.22;100.00;96466.15;106498;1306;22199;-90
2022/12/11 03:59:43;;;;;;;14.10;12.80;;;;;;;-1.19;100.00;96466.16;106551;1312;22645;-88
2022/12/11 04:02:11;;;;;;;15.70;14.10;;;;;;;-1.19;100.00;96465.11;106775;1285;22056;-90
2022/12/11 04:04:40;;;;;;;15.10;13.70;;;;;;;-1.21;100.00;96466.90;106659;1294;22205;-90
2022/12/11 04:07:08;;;;;;;17.00;15.40;;;;;;;-1.25;100.00;96468.10;106447;1312;22162;-90
2022/12/11 04:09:36;;;;;;;16.70;15.10;;;;;;;-1.27;100.00;96462.96;106238;1311;22153;-88
2022/12/11 04:12:04;;;;;;;17.40;15.80;;;;;;;-1.29;100.00;96465.65;106248;1312;22111;-89
2022/12/11 04:26:34;;;;;;;17.50;15.90;;;;;;;-1.42;100.00;96461.48;106724;1300;22098;-88
2022/12/11 04:29:02;;;;;;;17.50;15.90;;;;;;;-1.41;100.00;96462.74;106516;1312;22232;-88
2022/12/11 04:31:30;;;;;;;17.50;15.70;;;;;;;-1.41;100.00;96460.27;106583;1306;22177;-88
2022/12/11 04:33:58;;;;;;;17.00;15.50;;;;;;;-1.40;100.00;96459.79;106684;1306;22125;-88
2022/12/11 04:36:26;;;;;;;18.20;16.60;;;;;;;-1.42;100.00;96461.63;106684;1290;22229;-87
2022/12/11 04:38:53;;;;;;;18.10;16.50;;;;;;;-1.46;100.00;96457.86;106150;1312;22128;-90
2022/12/11 04:41:22;;;;;;;18.50;16.80;;;;;;;-1.48;100.00;96462.60;106250;1312;22326;-88
2022/12/11 04:43:50;;;;;;;17.80;16.20;;;;;;;-1.50;100.00;96459.48;106228;1312;22154;-89
2022/12/11 04:46:20;;;;;;;18.10;16.40;;;;;;;-1.49;100.00;96459.48;106398;1312;22424;-89
2022/12/11 04:48:49;;;;;;;18.30;16.70;;;;;;;-1.46;100.00;96453.15;106265;1309;22089;-89
2022/12/11 04:51:24;;;;;;;18.60;16.90;;;;;;;-1.47;100.00;96450.19;106483;1312;22244;-87
2022/12/11 04:53:52;;;;;;;17.30;15.80;;;;;;;-1.48;100.00;96452.83;106544;1306;22163;-88
2022/12/11 04:56:20;;;;;;;17.40;15.90;;;;;;;-1.46;100.00;96452.09;106226;1312;22101;-88
2022/12/11 04:58:49;;;;;;;17.70;16.20;;;;;;;-1.43;100.00;96450.89;106533;1300;22216;-88
2022/12/11 05:01:20;;;;;;;17.50;15.90;;;;;;;-1.44;100.00;96448.67;106467;1312;22210;-87
2022/12/11 05:03:48;;;;;;;18.40;16.70;;;;;;;-1.45;100.00;96444.75;106210;1312;22175;-88
2022/12/11 05:06:16;;;;;;;17.90;16.20;;;;;;;-1.44;100.00;96444.65;106482;1312;22253;-86
2022/12/11 05:08:44;;;;;;;17.10;15.50;;;;;;;-1.43;100.00;96437.73;106196;1312;22237;-87
2022/12/11 05:11:14;;;;;;;17.80;16.10;;;;;;;-1.48;100.00;96440.25;106659;1294;22060;-88
2022/12/11 05:13:43;;;;;;;16.70;15.20;;;;;;;-1.46;100.00;96440.09;106603;1297;22899;-88
2022/12/11 05:16:14;;;;;;;17.40;15.80;;;;;;;-1.48;100.00;96446.22;106695;1305;22232;-87
2022/12/11 05:18:42;;;;;;;16.40;14.90;;;;;;;-1.50;100.00;96448.00;106686;1305;22193;-88
2022/12/11 05:21:13;;;;;;;16.10;14.60;;;;;;;-1.49;100.00;96442.58;106220;1312;23041;-88
2022/12/11 05:23:41;;;;;;;15.80;14.10;;;;;;;-1.49;100.00;96433.39;106229;1312;22963;-86
2022/12/11 05:26:13;;;;;;;16.90;15.40;;;;;;;-1.48;100.00;96435.29;106663;1283;22083;-88
2022/12/11 05:28:42;;;;;;;18.00;16.30;;;;;;;-1.47;100.00;96431.70;106465;1312;22176;-88
2022/12/11 05:32:05;;;;;;;18.10;16.40;;;;;;;-1.50;100.00;96432.65;106181;1306;22225;-90
2022/12/11 05:34:33;;;;;;;17.60;15.90;;;;;;;-1.48;100.00;96427.67;106818;1305;22182;-88
2022/12/11 05:37:01;;;;;;;18.50;16.80;;;;;;;-1.47;100.00;96429.75;106554;1305;22141;-86
2022/12/11 05:39:29;;;;;;;17.80;16.00;;;;;;;-1.48;100.00;96428.36;106473;1312;23055;-89
2022/12/11 05:41:57;;;;;;;19.10;17.40;;;;;;;-1.46;100.00;96432.29;106657;1305;22628;-89
2022/12/11 05:44:26;;;;;;;18.80;17.00;;;;;;;-1.45;100.00;96429.84;106687;1300;22699;-88
2022/12/11 05:46:53;;;;;;;18.00;16.30;;;;;;;-1.46;100.00;96428.16;106552;1305;22219;-87
2022/12/11 05:49:21;;;;;;;17.20;15.60;;;;;;;-1.50;100.00;96424.56;106231;1312;22276;-87
2022/12/11 05:51:57;;;;;;;17.60;16.00;;;;;;;-1.51;100.00;96423.33;106235;1312;22242;-89
2022/12/11 05:54:25;;;;;;;17.10;15.40;;;;;;;-1.54;100.00;96427.70;106565;1305;22103;-87
2022/12/11 05:56:53;;;;;;;15.20;13.90;;;;;;;-1.55;100.00;96427.32;106728;1297;22290;-88
2022/12/11 05:59:21;;;;;;;17.00;15.30;;;;;;;-1.57;100.00;96417.39;106525;1312;22274;-87
2022/12/11 06:01:49;;;;;;;17.40;15.80;;;;;;;-1.61;100.00;96418.42;106479;1312;22179;-89
2022/12/11 06:04:17;;;;;;;17.40;15.70;;;;;;;-1.64;100.00;96417.61;106069;1312;22212;-87
2022/12/11 06:06:45;;;;;;;17.60;16.00;;;;;;;-1.67;100.00;96417.95;106558;1300;22127;-88
2022/12/11 06:09:14;;;;;;;17.60;16.00;;;;;;;-1.67;100.00;96413.38;106501;1312;22712;-87
2022/12/11 06:11:42;;;;;;;17.20;15.70;;;;;;;-1.70;100.00;96415.58;106525;1305;22237;-88
2022/12/11 06:14:10;;;;;;;17.90;16.30;;;;;;;-1.69;100.00;96410.09;106089;1310;22229;-89
2022/12/11 06:16:38;;;;;;;18.60;16.90;;;;;;;-1.71;100.00;96405.44;106380;1312;22196;-88
2022/12/11 06:19:13;;;;;;;17.50;15.90;;;;;;;-1.71;100.00;96407.80;106531;1305;22240;-87
2022/12/11 06:21:41;;;;;;;18.50;16.80;;;;;;;-1.76;100.00;96411.69;106032;1312;22884;-87
2022/12/11 06:24:09;;;;;;;19.70;18.00;;;;;;;-1.77;100.00;96415.91;106644;1299;22308;-88
2022/12/11 06:26:38;;;;;;;18.30;16.70;;;;;;;-1.77;100.00;96419.50;106598;1305;22240;-87
2022/12/11 06:29:05;;;;;;;19.90;18.10;;;;;;;-1.79;100.00;96422.44;106465;1307;22225;-88
2022/12/11 06:31:42;;;;;;;19.00;17.20;;;;;;;-1.76;100.00;96424.42;106537;1306;21946;-88
2022/12/11 06:34:11;;;;;;;20.60;18.70;;;;;;;-1.74;100.00;96424.33;106393;1312;22186;-88
2022/12/11 06:36:40;;;;;;;22.20;20.00;;;;;;;-1.76;100.00;96426.21;106541;1305;22276;-88
2022/12/11 06:39:08;;;;;;;20.00;18.20;;;;;;;-1.77;100.00;96429.48;106473;1312;22168;-88
2022/12/11 06:41:36;;;;;;;20.10;18.20;;;;;;;-1.78;100.00;96426.89;106221;1312;22919;-85
2022/12/11 06:44:04;;;;;;;21.40;19.30;;;;;;;-1.78;100.00;96428.15;106675;1290;22075;-87
2022/12/11 06:46:32;;;;;;;20.70;18.80;;;;;;;-1.79;100.00;96429.64;106457;1312;22836;-87
2022/12/11 06:48:59;;;;;;;19.80;18.00;;;;;;;-1.82;100.00;96435.84;106501;1312;22353;-89
2022/12/11 06:51:27;;;;;;;21.00;19.10;;;;;;;-1.85;100.00;96441.69;106665;1305;22225;-89
2022/12/11 06:53:56;;;;;;;22.20;20.00;;;;;;;-1.88;100.00;96445.85;106235;1312;22797;-89
2022/12/11 06:56:24;;;;;;;22.60;20.50;;;;;;;-1.91;100.00;96445.60;106616;1297;22186;-87
2022/12/11 06:58:52;;;;;;;23.00;20.90;;;;;;;-1.96;100.00;96442.30;106234;1310;22199;-87
2022/12/11 07:01:25;;;;;;;22.00;19.90;;;;;;;-1.98;100.00;96441.40;106384;1312;22216;-88
2022/12/11 07:03:55;;;;;;;22.00;20.00;;;;;;;-2.02;100.00;96437.92;106472;1312;22733;-88
2022/12/11 07:06:25;;;;;;;20.90;18.80;;;;;;;-2.05;100.00;96434.05;106231;1313;22234;-88
2022/12/11 07:08:53;;;;;;;21.90;20.00;;;;;;;-2.04;100.00;96436.50;106231;1312;22251;-87
2022/12/11 07:11:21;;;;;;;23.60;21.50;;;;;;;-2.05;100.00;96437.08;106435;1312;22314;-88
2022/12/11 07:13:50;;;;;;;24.50;22.30;;;;;;;-2.00;100.00;96434.41;106229;1310;22988;-88
2022/12/11 07:16:18;;;;;;;23.10;20.80;;;;;;;-2.01;100.00;96430.50;106489;1312;22192;-88
2022/12/11 07:18:48;;;;;;;22.80;20.60;;;;;;;-2.05;100.00;96432.26;106234;1312;22307;-88
2022/12/11 07:21:17;;;;;;;25.00;22.60;;;;;;;-2.06;100.00;96439.23;106352;1312;22215;-85
2022/12/11 07:23:46;;;;;;;24.20;21.90;;;;;;;-2.09;100.00;96440.80;106236;1312;22142;-87
2022/12/11 07:26:16;;;;;;;23.80;21.50;;;;;;;-2.15;100.00;96449.19;106170;1312;22828;-86
2022/12/11 07:28:44;;;;;;;24.50;22.00;;;;;;;-2.18;100.00;96456.39;106600;1305;22082;-87
2022/12/11 07:31:20;;;;;;;23.60;21.40;;;;;;;-2.24;100.00;96454.61;106491;1305;22239;-88
2022/12/11 07:33:56;;;;;;;21.60;19.40;;;;;;;-2.29;100.00;96454.84;106127;1312;181183;-88
2022/12/11 07:36:26;;;;;;;22.20;20.10;;;;;;;-2.26;100.00;96452.70;106497;1312;22776;-88
2022/12/11 07:38:54;;;;;;;20.70;18.60;;;;;;;-2.22;100.00;96449.34;106533;1306;22985;-86
2022/12/11 07:41:22;;;;;;;23.80;21.60;;;;;;;-2.24;100.00;96453.66;106507;1306;22862;-87
2022/12/11 07:43:54;;;;;;;24.00;21.80;;;;;;;-2.24;100.00;96457.98;106681;1282;22179;-85
2022/12/11 07:46:25;;;;;;;24.10;21.90;;;;;;;-2.28;100.00;96467.98;106675;1305;22250;-89
2022/12/11 07:48:53;;;;;;;25.80;23.40;;;;;;;-2.30;100.00;96461.16;106487;1311;22271;-87
2022/12/11 07:51:25;;;;;;;23.00;20.90;;;;;;;-2.31;100.00;96461.68;106097;1312;22253;-88
2022/12/11 07:53:55;;;;;;;22.80;20.80;;;;;;;-2.31;100.00;96459.77;106660;1294;22158;-88
2022/12/11 07:56:25;;;;;;;21.70;19.90;;;;;;;-2.27;100.00;96456.85;106248;1312;22257;-88
2022/12/11 07:58:53;;;;;;;23.10;21.00;;;;;;;-2.26;100.00;96453.80;106679;1290;22170;-86
2022/12/11 08:01:24;;;;;;;22.00;20.00;;;;;;;-2.24;100.00;96455.08;106614;1312;22270;-87
2022/12/11 08:03:54;;;;;;;20.00;18.30;;;;;;;-2.24;100.00;96456.52;106255;1312;22206;-87
2022/12/11 08:06:28;;;;;;;21.40;19.50;;;;;;;-2.23;100.00;96454.77;106684;1297;22885;-87
2022/12/11 08:08:58;;;;;;;20.20;18.40;;;;;;;-2.22;100.00;96454.73;106593;1312;22161;-86
2022/12/11 08:11:27;;;;;;;22.20;20.30;;;;;;;-2.22;100.00;96456.27;106230;1311;22220;-87
2022/12/11 08:13:55;;;;;;;21.80;19.80;;;;;;;-2.21;100.00;96455.42;106276;1312;22536;-88
2022/12/11 08:16:23;;;;;;;22.70;20.80;;;;;;;-2.21;100.00;96458.06;106022;1312;22902;-87
2022/12/11 08:18:51;;;;;;;22.30;20.30;;;;;;;-2.21;100.00;96461.08;106580;1306;22077;-87
2022/12/11 08:21:20;;;;;;;22.20;20.30;;;;;;;-2.23;100.00;96458.84;106563;1300;22227;-88
2022/12/11 08:23:49;;;;;;;21.60;19.70;;;;;;;-2.19;100.00;96457.13;106558;1305;22069;-88
2022/12/11 08:26:20;;;;;;;23.70;21.70;;;;;;;-2.15;100.00;96455.16;106505;1310;22242;-89
2022/12/11 08:28:49;;;;;;;22.00;20.00;;;;;;;-2.16;100.00;96455.19;106250;1312;23084;-88
2022/12/11 08:31:17;;;;;;;24.20;22.00;;;;;;;-2.18;100.00;96457.61;106543;1300;22168;-86
2022/12/11 08:33:47;;;;;;;21.40;19.50;;;;;;;-2.19;100.00;96453.70;106622;1306;22130;-87
2022/12/11 08:36:17;;;;;;;20.10;18.30;;;;;;;-2.17;100.00;96457.93;106259;1312;22094;-86
2022/12/11 08:38:46;;;;;;;21.80;19.70;;;;;;;-2.14;100.00;96465.55;106249;1313;22215;-86
2022/12/11 08:41:15;;;;;;;21.30;19.40;;;;;;;-2.15;100.00;96453.73;106372;1312;22189;-85
2022/12/11 08:43:43;;;;;;;22.10;20.10;;;;;;;-2.19;100.00;96448.64;106270;1309;22204;-85
2022/12/11 08:46:12;;;;;;;22.80;20.70;;;;;;;-2.20;100.00;96453.58;106557;1300;23077;-86
2022/12/11 08:48:41;;;;;;;25.30;22.90;;;;;;;-2.14;100.00;96453.78;106659;1298;22366;-88
2022/12/11 08:51:13;;;;;;;27.50;24.80;;;;;;;-2.15;100.00;96449.67;106515;1312;22875;-90
2022/12/11 08:53:41;;;;;;;28.30;25.80;;;;;;;-2.15;100.00;96453.09;106609;1312;22196;-88
2022/12/11 08:56:15;;;;;;;27.10;24.50;;;;;;;-2.14;100.00;96458.80;106549;1306;22215;-91
2022/12/11 08:58:44;;;;;;;25.60;23.20;;;;;;;-2.11;100.00;96457.30;106498;1312;22943;-87
2022/12/11 09:01:18;;;;;;;27.00;24.50;;;;;;;-2.12;100.00;96462.41;106278;1312;22724;-89
2022/12/11 09:03:47;;;;;;;27.30;24.90;;;;;;;-2.10;100.00;96455.89;106585;1305;21990;-86
2022/12/11 09:06:17;;;;;;;29.10;26.20;;;;;;;-2.13;100.00;96456.48;106453;1312;23074;-88
2022/12/11 09:08:47;;;;;;;28.90;26.20;;;;;;;-2.16;100.00;96459.64;106290;1312;22266;-90
2022/12/11 09:11:22;;;;;;;28.70;26.00;;;;;;;-2.12;100.00;96460.47;106246;1310;22250;-87
2022/12/11 09:13:51;;;;;;;26.80;24.30;;;;;;;-2.13;100.00;96457.02;106265;1312;22758;-87
2022/12/11 09:16:21;;;;;;;27.10;24.30;;;;;;;-2.13;100.00;96457.65;106616;1300;22150;-87
2022/12/11 09:18:52;;;;;;;26.70;24.20;;;;;;;-2.12;100.00;96454.23;106692;1297;22170;-86
2022/12/11 09:21:26;;;;;;;29.20;26.50;;;;;;;-2.13;100.00;96448.84;106467;1312;22130;-89
2022/12/11 09:23:57;;;;;;;28.40;25.90;;;;;;;-2.15;100.00;96457.58;106563;1306;22184;-85
2022/12/11 09:26:27;;;;;;;27.30;24.80;;;;;;;-2.19;100.00;96456.66;106701;1305;22620;-86
2022/12/11 09:28:55;;;;;;;27.80;25.30;;;;;;;-2.18;100.00;96465.33;106766;1305;22231;-87
2022/12/11 09:31:29;;;;;;;28.70;26.10;;;;;;;-2.20;100.00;96462.88;106767;1305;22072;-85
2022/12/11 09:34:00;;;;;;;28.10;25.60;;;;;;;-2.21;100.00;96453.27;106135;1315;21966;-86
2022/12/11 09:36:28;;;;;;;29.00;26.40;;;;;;;-2.21;100.00;96444.67;106633;1290;22261;-86
2022/12/11 09:39:01;;;;;;;29.50;26.60;;;;;;;-2.17;100.00;96440.10;106525;1306;22210;-85
2022/12/11 09:41:54;;;;;;;30.80;27.80;;;;;;;-2.16;100.00;96435.42;106511;1312;22140;-84
2022/12/11 09:44:52;;;;;;;32.00;29.10;;;;;;;-2.17;100.00;96431.91;106546;1312;22256;-86
2022/12/11 09:47:37;;;;;;;30.60;27.90;;;;;;;-2.15;100.00;96432.20;106435;1312;22154;-87
2022/12/11 09:50:08;;;;;;;30.20;27.40;;;;;;;-2.14;100.00;96435.05;106768;1299;22133;-87
2022/12/11 09:52:38;;;;;;;30.60;27.90;;;;;;;-2.07;100.00;96439.96;106542;1306;22256;-86
2022/12/11 09:55:34;;;;;;;29.80;27.20;;;;;;;-2.05;100.00;96440.66;106565;1305;22211;-84
2022/12/11 09:58:07;;;;;;;;;;;;;;;-2.08;99.72;96450.09;106433;1313;22319;-86
2022/12/11 10:00:40;;;;;;;28.40;25.90;;;;;;;-2.11;99.66;96446.78;106674;1312;22248;-86
2022/12/11 10:03:29;;;;;;;30.20;27.40;;;;;;;-2.11;99.46;96448.22;106591;1308;22169;-86
2022/12/11 10:06:06;;;;;;;29.40;26.80;;;;;;;-2.10;99.95;96443.27;106650;1312;22193;-86
2022/12/11 10:08:49;;;;;;;31.50;28.70;;;;;;;-2.00;100.00;96440.86;106661;1312;22137;-85
2022/12/11 10:11:41;;;;;;;28.80;26.40;;;;;;;-2.02;98.68;96449.08;106547;1312;22256;-86
2022/12/11 10:14:21;;;;;;;27.90;25.40;;;;;;;-2.13;98.44;96450.00;106800;1291;22745;-87
2022/12/11 10:17:03;;;;;;;32.60;29.50;;;;;;;-2.16;97.91;96449.83;106572;1312;22104;-87
2022/12/11 10:19:31;;;;;;;26.30;23.90;;;;;;;-2.27;97.74;96444.03;106791;1304;22249;-86
2022/12/11 10:22:01;;;;;;;25.10;22.80;;;;;;;-2.31;97.46;96445.59;106279;1312;22171;-86
2022/12/11 10:24:44;;;;;;;23.30;21.00;;;;;;;-2.33;97.33;96437.98;106566;1294;22208;-87
2022/12/11 10:27:37;;;;;;;24.30;22.20;;;;;;;-2.25;98.28;96441.47;106661;1305;22246;-85
2022/12/11 10:30:35;;;;;;;27.90;25.50;;;;;;;-2.13;97.61;96444.51;106532;1312;22357;-87
2022/12/11 10:33:09;;;;;;;28.70;26.00;;;;;;;-2.15;96.80;96453.84;106505;1312;22254;-87
2022/12/11 10:35:53;;;;;;;27.40;24.90;;;;;;;-2.15;96.99;96447.92;106468;1312;22841;-86
2022/12/11 10:38:39;;;;;;;27.60;25.20;;;;;;;-2.18;96.80;96448.39;106330;1310;22209;-86
2022/12/11 10:41:13;;;;;;;31.30;28.40;;;;;;;-2.19;97.53;96444.56;106281;1313;22228;-87
2022/12/11 10:43:45;;;;;;;28.60;26.10;;;;;;;-2.15;97.57;96447.14;106557;1292;22890;-88
2022/12/11 10:46:21;;;;;;;32.00;29.10;;;;;;;-2.12;97.52;96444.20;106326;1312;23021;-88
2022/12/11 10:48:54;;;;;;;28.20;25.50;;;;;;;-2.15;97.24;96443.70;106246;1310;22349;-87
2022/12/11 10:51:32;;;;;;;32.40;29.40;;;;;;;-2.14;97.58;96439.38;106257;1313;22278;-87
2022/12/11 10:54:36;;;;;;;30.00;27.20;;;;;;;-2.17;97.56;96438.78;106525;1294;22153;-88
2022/12/11 10:57:07;;;;;;;30.50;27.20;;;;;;;-2.19;98.10;96433.23;106487;1312;22247;-89
2022/12/11 10:59:41;;;;;;;28.90;26.30;;;;;;;-2.13;98.21;96432.15;106717;1305;22432;-90
2022/12/11 11:02:40;;;;;;;29.60;27.10;;;;;;;-2.14;97.93;96430.46;106626;1312;22217;-89
2022/12/11 11:05:27;;;;;;;26.20;23.90;;;;;;;-2.18;97.95;96423.30;106609;1312;22684;-92
2022/12/11 11:08:14;;;;;;;27.60;24.90;;;;;;;-2.22;97.89;96427.77;106376;1313;21976;-90
2022/12/11 11:11:23;;;;;;;25.50;23.20;;;;;;;-2.22;98.06;96429.55;106648;1312;22166;-88
2022/12/11 11:14:23;;;;;;;24.80;22.60;;;;;;;-2.26;97.24;96429.10;106305;1312;22282;-88
2022/12/11 11:16:55;;;;;;;22.80;20.60;;;;;;;-2.35;97.17;96426.84;106639;1312;22820;-93
2022/12/11 11:19:28;;;;;;;21.90;19.90;;;;;;;-2.37;97.14;96421.16;106566;1312;22183;-90
2022/12/11 11:22:18;;;;;;;22.00;20.00;;;;;;;-2.34;97.23;96413.96;106762;1312;22170;-88
2022/12/11 11:24:54;;;;;;;24.60;22.20;;;;;;;-2.29;97.24;96412.83;106588;1313;22116;-91
2022/12/11 11:28:01;;;;;;;25.40;23.00;;;;;;;-2.23;96.83;96410.92;106544;1313;22422;-93
2022/12/11 11:30:35;;;;;;;23.10;21.00;;;;;;;-2.18;96.40;96405.64;106723;1290;22256;-91
2022/12/11 11:33:09;;;;;;;;;;;;;;;-2.13;96.30;96409.63;106875;1303;22293;-90
2022/12/11 11:35:38;;;;;;;25.50;23.30;;;;;;;-2.10;96.08;96414.02;106657;1312;22199;-84
2022/12/11 11:38:18;;;;;;;30.90;28.10;;;;;;;-2.05;96.31;96415.11;106655;1310;22169;-90
2022/12/11 11:41:24;;;;;;;28.20;25.60;;;;;;;-1.96;95.79;96415.23;106729;1312;22451;-84
2022/12/11 11:43:56;;;;;;;26.80;24.20;;;;;;;-1.97;95.67;96414.41;106855;1312;22150;-90